KGEG/GEG METAR and TAF weather

Enter ICAO airport designator
Station Type Date Time Source
KGEG METAR 2021/01/17 19:17 UTC NOAA

KGEG 171917Z 26008KT 2SM BR SCT003 OVC005 01/M01 A3028 RMK AO2 T00061006 $


Station Type Date Time Source
KGEG Decoded METAR 2021/01/17 19:17 UTC NOAA

SPOKANE INTERNATIONAL AIRPORT , WA, United States (KGEG) 47-37N 117-32W 735M
Jan 17, 2021 - 02:17 PM EST / 2021.01.17 1917 UTC
Wind: from the W (260 degrees) at 9 MPH (8 KT):0
Visibility: 2 mile(s):0
Sky conditions: overcast
Weather: mist
Temperature: 33.1 F (0.6 C)
Windchill: 24 F (-4 C):1
Dew Point: 30.9 F (-0.6 C)
Relative Humidity: 91%
Pressure (altimeter): 30.28 in. Hg (1025 hPa)
ob: KGEG 171917Z 26008KT 2SM BR SCT003 OVC005 01/M01 A3028 RMK AO2 T00061006
cycle: 19

Station Type Date Time Source
KGEG TAF 2021/01/17 18:39 UTC NOAA

TAF KGEG 171737Z 1718/1818 23009KT 2SM BR SCT002 BKN006
TEMPO 1718/1721 1/4SM FG OVC002
FM172100 24006KT P6SM SCT017
FM180800 24004KT 2SM BR SCT003 OVC009
FM181200 26004KT 1 1/2SM BR OVC015
FM181400 28003KT 1/4SM FG BKN002 OVC006

Example: see airport list